Time;durP1;ratioP1;P1;durP2;ratioP2;P2;SDS_P1;SDS_P2;PMS_P1;PMS_P2;Temp;Humidity;BMP_temperature;BMP_pressure;BME280_temperature;BME280_humidity;BME280_pressure;Samples;Min_cycle;Max_cycle;Signal;HPM_P1;HPM_P2
2021/08/16 00:01:52;;;;;;;11.60;10.27;;;20.00;99.90;;;;;;5070586;28;20470;-70
2021/08/16 00:04:19;;;;;;;9.77;8.60;;;20.00;99.90;;;;;;5070115;28;21023;-69
2021/08/16 00:06:45;;;;;;;9.80;8.80;;;20.00;99.90;;;;;;5070603;28;20493;-70
2021/08/16 00:09:12;;;;;;;13.50;9.80;;;20.00;99.90;;;;;;5069877;28;20462;-69
2021/08/16 00:11:39;;;;;;;10.70;9.70;;;20.10;99.90;;;;;;5070343;28;20961;-69
2021/08/16 00:14:06;;;;;;;10.43;9.47;;;20.10;99.90;;;;;;5070214;28;20490;-69
2021/08/16 00:16:34;;;;;;;10.30;9.30;;;20.10;99.90;;;;;;5070189;28;20490;-69
2021/08/16 00:19:02;;;;;;;11.80;8.83;;;20.10;99.90;;;;;;5070080;28;20462;-69
2021/08/16 00:21:29;;;;;;;13.27;8.50;;;20.20;99.90;;;;;;5069608;28;20458;-69
2021/08/16 00:23:56;;;;;;;9.33;8.13;;;20.20;99.90;;;;;;5070388;28;21005;-69
2021/08/16 00:26:22;;;;;;;10.90;8.40;;;20.20;99.90;;;;;;5069955;28;20479;-69
2021/08/16 00:28:49;;;;;;;9.73;8.83;;;20.20;99.90;;;;;;5069763;28;20968;-69
2021/08/16 00:31:16;;;;;;;11.57;8.13;;;20.20;99.90;;;;;;5070075;28;20466;-69
2021/08/16 00:33:43;;;;;;;13.57;9.07;;;20.30;99.90;;;;;;5070224;28;20461;-69
2021/08/16 00:36:11;;;;;;;9.00;7.83;;;20.30;99.90;;;;;;5070299;28;20486;-69
2021/08/16 00:38:37;;;;;;;9.53;8.47;;;20.30;99.90;;;;;;5069542;28;20466;-69
2021/08/16 00:41:04;;;;;;;13.33;8.33;;;20.30;99.90;;;;;;5070175;28;20467;-69
2021/08/16 00:43:31;;;;;;;11.17;8.20;;;20.30;99.90;;;;;;5069542;28;20486;-69
2021/08/16 00:45:58;;;;;;;9.93;9.00;;;20.30;99.90;;;;;;5070142;28;20482;-69
2021/08/16 00:48:25;;;;;;;10.27;9.17;;;20.30;99.90;;;;;;5069508;28;20462;-69
2021/08/16 00:50:52;;;;;;;10.20;8.93;;;20.40;99.90;;;;;;5070026;28;20462;-69
2021/08/16 00:53:20;;;;;;;9.90;8.80;;;20.40;99.90;;;;;;5069628;28;20847;-70
2021/08/16 00:55:46;;;;;;;9.77;8.77;;;20.40;99.90;;;;;;5069718;28;20474;-69
2021/08/16 00:58:13;;;;;;;10.67;8.83;;;20.40;99.90;;;;;;5069129;28;20472;-68
2021/08/16 01:00:42;;;;;;;9.10;8.10;;;20.50;99.90;;;;;;5069605;28;20894;-69
2021/08/16 01:03:09;;;;;;;9.40;8.00;;;20.50;99.90;;;;;;5069683;28;20478;-69
2021/08/16 01:05:36;;;;;;;9.73;8.47;;;20.50;99.90;;;;;;5069258;28;21005;-70
2021/08/16 01:08:03;;;;;;;12.20;8.60;;;20.50;99.90;;;;;;5069037;28;20466;-69
2021/08/16 01:10:33;;;;;;;10.10;9.10;;;20.50;99.90;;;;;;5069426;28;20474;-69
2021/08/16 01:13:00;;;;;;;10.43;9.07;;;20.50;99.90;;;;;;5069364;28;20833;-69
2021/08/16 01:15:28;;;;;;;13.00;8.73;;;20.40;99.90;;;;;;5068944;28;20461;-69
2021/08/16 01:17:55;;;;;;;11.30;9.03;;;20.50;99.90;;;;;;5068815;28;20557;-70
2021/08/16 01:20:22;;;;;;;9.73;8.33;;;20.50;99.90;;;;;;5068610;28;20469;-70
2021/08/16 01:22:49;;;;;;;9.10;8.17;;;20.50;99.90;;;;;;5069063;28;20462;-70
2021/08/16 01:25:16;;;;;;;10.53;9.43;;;20.50;99.90;;;;;;5068784;28;20486;-70
2021/08/16 01:27:44;;;;;;;11.70;8.90;;;20.40;99.90;;;;;;5068221;28;20463;-69
2021/08/16 01:30:13;;;;;;;11.60;8.93;;;20.40;99.90;;;;;;5068938;28;20459;-69
2021/08/16 01:32:41;;;;;;;12.97;9.33;;;20.40;99.90;;;;;;5068661;28;20470;-69
2021/08/16 01:35:09;;;;;;;10.57;9.30;;;20.40;99.90;;;;;;5068803;28;20458;-69
2021/08/16 01:37:36;;;;;;;10.43;8.37;;;20.30;99.90;;;;;;5068025;28;20487;-69
2021/08/16 01:40:03;;;;;;;9.00;8.10;;;20.30;99.90;;;;;;5068708;28;20458;-69
2021/08/16 01:42:30;;;;;;;10.13;8.37;;;20.30;99.90;;;;;;5068417;28;20466;-70
2021/08/16 01:44:58;;;;;;;10.47;8.77;;;20.30;99.90;;;;;;5068589;28;20494;-70
2021/08/16 01:47:24;;;;;;;10.07;9.10;;;20.30;99.90;;;;;;5068202;28;20486;-69
2021/08/16 01:49:52;;;;;;;11.33;9.40;;;20.20;99.90;;;;;;5068404;28;20958;-69
2021/08/16 01:52:18;;;;;;;9.73;8.40;;;20.20;99.90;;;;;;5068322;28;20511;-69
2021/08/16 01:54:45;;;;;;;9.67;8.40;;;20.20;99.90;;;;;;5068785;28;20462;-69
2021/08/16 01:57:13;;;;;;;12.23;8.97;;;20.20;99.90;;;;;;5068292;28;20855;-70
2021/08/16 01:59:40;;;;;;;9.70;8.80;;;20.20;99.90;;;;;;5068411;28;20473;-69
2021/08/16 02:02:08;;;;;;;10.90;8.90;;;20.20;99.90;;;;;;5068374;28;20466;-70
2021/08/16 02:04:35;;;;;;;10.73;9.43;;;20.10;99.90;;;;;;5068116;28;20505;-69
2021/08/16 02:07:02;;;;;;;9.67;8.67;;;20.10;99.90;;;;;;5068314;28;21008;-69
2021/08/16 02:09:29;;;;;;;9.77;8.80;;;20.10;99.90;;;;;;5067701;28;21040;-69
2021/08/16 02:11:56;;;;;;;9.40;8.50;;;20.10;99.90;;;;;;5068619;28;20463;-69
2021/08/16 02:14:23;;;;;;;11.00;9.00;;;20.10;99.90;;;;;;5068157;28;20454;-70
2021/08/16 02:16:51;;;;;;;10.87;8.77;;;20.20;99.90;;;;;;5068537;28;20483;-69
2021/08/16 02:19:19;;;;;;;10.17;9.17;;;20.10;99.90;;;;;;5067472;28;21025;-69
2021/08/16 02:21:46;;;;;;;10.40;8.10;;;20.10;99.90;;;;;;5068543;28;20861;-68
2021/08/16 02:24:12;;;;;;;13.07;8.20;;;20.10;99.90;;;;;;5068063;28;20506;-70
2021/08/16 02:26:39;;;;;;;10.83;8.47;;;20.10;99.90;;;;;;5067994;28;21195;-69
2021/08/16 02:29:06;;;;;;;9.20;8.30;;;20.10;99.90;;;;;;5067874;28;20458;-69
2021/08/16 02:31:33;;;;;;;9.50;8.60;;;20.00;99.90;;;;;;5067996;28;20485;-69
2021/08/16 02:34:00;;;;;;;8.97;7.87;;;20.00;99.90;;;;;;5068400;28;20470;-70
2021/08/16 02:36:28;;;;;;;8.23;7.43;;;19.90;99.90;;;;;;5067796;28;20865;-69
2021/08/16 02:38:55;;;;;;;8.70;7.80;;;19.80;99.90;;;;;;5067592;28;20540;-69
2021/08/16 02:41:25;;;;;;;11.33;7.40;;;19.80;99.90;;;;;;5067837;28;20467;-70
2021/08/16 02:43:52;;;;;;;11.23;8.27;;;19.80;99.90;;;;;;5069220;28;20484;-69
2021/08/16 02:46:20;;;;;;;9.57;7.83;;;19.70;99.90;;;;;;5071794;28;20486;-70
2021/08/16 02:48:46;;;;;;;8.80;8.00;;;19.70;99.90;;;;;;5071555;28;20490;-69
2021/08/16 02:51:13;;;;;;;9.07;8.17;;;19.70;99.90;;;;;;5071976;28;20466;-70
2021/08/16 02:53:41;;;;;;;9.00;8.00;;;19.70;99.90;;;;;;5071591;28;20481;-69
2021/08/16 02:56:08;;;;;;;9.93;7.63;;;19.70;99.90;;;;;;5071615;28;20824;-70
2021/08/16 02:58:34;;;;;;;9.63;7.63;;;19.70;99.90;;;;;;5071074;28;21136;-69
2021/08/16 03:01:01;;;;;;;8.67;7.80;;;19.70;99.90;;;;;;5071717;28;20465;-69
2021/08/16 03:03:29;;;;;;;9.97;8.20;;;19.60;99.90;;;;;;5071388;28;20466;-70
2021/08/16 03:05:55;;;;;;;9.20;8.30;;;19.60;99.90;;;;;;5071860;28;20628;-69
2021/08/16 03:08:22;;;;;;;9.13;8.17;;;19.60;99.90;;;;;;5071042;28;20463;-70
2021/08/16 03:10:50;;;;;;;9.57;8.67;;;19.60;99.90;;;;;;5071685;28;20953;-69
2021/08/16 03:13:17;;;;;;;10.33;8.20;;;19.60;99.90;;;;;;5071192;28;20459;-70
2021/08/16 03:15:43;;;;;;;11.83;8.67;;;19.50;99.90;;;;;;5071534;28;21049;-70
2021/08/16 03:18:10;;;;;;;13.73;8.33;;;19.50;99.90;;;;;;5070819;28;20469;-68
2021/08/16 03:20:37;;;;;;;7.97;7.27;;;19.50;99.90;;;;;;5071541;28;20520;-69
2021/08/16 03:23:03;;;;;;;11.73;8.57;;;19.40;99.90;;;;;;5071286;28;20480;-70
2021/08/16 03:25:30;;;;;;;10.40;8.33;;;19.40;99.90;;;;;;5070979;28;20482;-69
2021/08/16 03:27:58;;;;;;;9.53;8.63;;;19.40;99.90;;;;;;5070501;28;20462;-69
2021/08/16 03:30:25;;;;;;;9.63;8.73;;;19.40;99.90;;;;;;5071419;28;20470;-69
2021/08/16 03:32:51;;;;;;;9.10;8.20;;;19.30;99.90;;;;;;5071328;28;20973;-69
2021/08/16 03:35:18;;;;;;;9.57;8.63;;;19.30;99.90;;;;;;5071351;28;20458;-69
2021/08/16 03:37:46;;;;;;;12.33;8.50;;;19.30;99.90;;;;;;5071119;28;20467;-68
2021/08/16 03:40:14;;;;;;;8.67;7.77;;;19.20;99.90;;;;;;5071282;28;20466;-69
2021/08/16 03:42:41;;;;;;;11.90;8.37;;;19.20;99.90;;;;;;5071578;28;20469;-69
2021/08/16 03:45:11;;;;;;;9.67;8.20;;;19.20;99.90;;;;;;5071116;28;20486;-70
2021/08/16 03:47:38;;;;;;;8.80;7.70;;;19.20;99.90;;;;;;5070938;28;20489;-69
2021/08/16 03:50:05;;;;;;;11.27;9.27;;;19.20;99.90;;;;;;5071162;28;20454;-68
2021/08/16 03:52:32;;;;;;;12.80;9.30;;;19.10;99.90;;;;;;5071409;28;20454;-69
2021/08/16 03:54:58;;;;;;;10.37;8.97;;;19.20;99.90;;;;;;5069901;28;20976;-68
2021/08/16 03:57:25;;;;;;;10.37;9.27;;;19.20;99.90;;;;;;5070710;28;20490;-69
2021/08/16 03:59:52;;;;;;;10.83;9.73;;;19.20;99.90;;;;;;5071385;28;20824;-69
2021/08/16 04:02:21;;;;;;;10.03;8.40;;;19.10;99.90;;;;;;5070908;28;20458;-69
2021/08/16 04:04:48;;;;;;;9.90;8.63;;;19.20;99.90;;;;;;5070953;28;20485;-69
2021/08/16 04:07:14;;;;;;;10.27;9.20;;;19.20;99.90;;;;;;5070327;28;20489;-69
2021/08/16 04:09:41;;;;;;;10.10;9.10;;;19.20;99.90;;;;;;5070898;28;20893;-69
2021/08/16 04:12:08;;;;;;;12.23;9.67;;;19.20;99.90;;;;;;5070731;28;20458;-69
2021/08/16 04:14:35;;;;;;;9.13;8.07;;;19.20;99.90;;;;;;5070845;28;20867;-70
2021/08/16 04:17:01;;;;;;;10.13;9.03;;;19.20;99.90;;;;;;5070497;28;20483;-69
2021/08/16 04:19:30;;;;;;;10.33;8.53;;;19.20;99.90;;;;;;5070056;28;20997;-70
2021/08/16 04:21:56;;;;;;;12.10;9.30;;;19.20;99.90;;;;;;5070653;28;20889;-69
2021/08/16 04:24:23;;;;;;;10.00;9.00;;;19.20;99.90;;;;;;5070369;28;20458;-69
2021/08/16 04:26:50;;;;;;;8.97;8.17;;;19.20;99.90;;;;;;5070387;28;20486;-70
2021/08/16 04:29:16;;;;;;;9.87;8.43;;;19.20;99.90;;;;;;5069818;28;20814;-70
2021/08/16 04:31:43;;;;;;;11.20;9.97;;;19.20;99.90;;;;;;5070429;28;20470;-69
2021/08/16 04:34:10;;;;;;;10.80;9.70;;;19.20;99.90;;;;;;5070108;28;20458;-70
2021/08/16 04:36:38;;;;;;;11.70;9.10;;;19.20;99.90;;;;;;5070246;28;20490;-69
2021/08/16 04:39:04;;;;;;;9.20;8.30;;;19.10;99.90;;;;;;5069385;28;20455;-69
2021/08/16 04:41:31;;;;;;;9.90;8.20;;;19.20;99.90;;;;;;5218131;22;20488;-73
2021/08/16 04:43:58;;;;;;;8.10;7.40;;;19.20;99.90;;;;;;5029317;28;20467;-72
2021/08/16 04:46:24;;;;;;;8.70;7.90;;;19.10;99.90;;;;;;5029476;28;20496;-72
2021/08/16 04:48:51;;;;;;;8.70;7.80;;;19.10;99.90;;;;;;5029258;28;20471;-72
2021/08/16 04:51:18;;;;;;;9.80;8.27;;;19.20;99.90;;;;;;5029593;28;20468;-72
2021/08/16 04:53:46;;;;;;;10.40;8.33;;;19.20;99.90;;;;;;5029621;28;20464;-72
2021/08/16 04:56:13;;;;;;;8.97;8.10;;;19.20;99.90;;;;;;5029325;28;20472;-72
2021/08/16 04:58:40;;;;;;;9.07;7.47;;;19.20;99.90;;;;;;5029154;28;20837;-72
2021/08/16 05:01:06;;;;;;;11.50;7.20;;;19.20;99.90;;;;;;5029683;28;20464;-73
2021/08/16 05:03:33;;;;;;;7.67;6.80;;;19.20;99.90;;;;;;5029424;28;20498;-71
2021/08/16 05:06:05;;;;;;;13.10;7.30;;;19.10;99.90;;;;;;5029388;28;20488;-72
2021/08/16 05:08:32;;;;;;;6.93;6.23;;;19.20;99.90;;;;;;5029167;28;20551;-72
2021/08/16 05:11:00;;;;;;;17.30;8.73;;;19.20;99.90;;;;;;5029877;28;20456;-72
2021/08/16 05:13:27;;;;;;;8.70;6.43;;;19.20;99.90;;;;;;5029407;28;20472;-72
2021/08/16 05:15:54;;;;;;;7.00;6.30;;;19.30;99.90;;;;;;5029801;28;20852;-72
2021/08/16 05:18:21;;;;;;;8.00;6.07;;;19.20;99.90;;;;;;5028736;28;20465;-72
2021/08/16 05:20:48;;;;;;;8.40;6.27;;;19.20;99.90;;;;;;5029752;28;20468;-72
2021/08/16 05:23:17;;;;;;;7.73;5.80;;;19.20;99.90;;;;;;5029330;28;20514;-72
2021/08/16 05:25:44;;;;;;;8.20;6.30;;;19.20;99.90;;;;;;5029439;28;20996;-72
2021/08/16 05:28:12;;;;;;;7.20;6.20;;;19.20;99.90;;;;;;5028958;28;20464;-72
2021/08/16 05:30:39;;;;;;;7.30;6.43;;;19.20;99.90;;;;;;5029151;28;20460;-72
2021/08/16 05:33:06;;;;;;;8.30;5.90;;;19.20;99.90;;;;;;5029649;28;20971;-72
2021/08/16 05:35:33;;;;;;;7.03;5.90;;;19.20;99.90;;;;;;5028962;28;20930;-72
2021/08/16 05:37:59;;;;;;;7.37;6.63;;;19.20;99.90;;;;;;5028572;28;20475;-72
2021/08/16 05:40:27;;;;;;;6.07;5.57;;;19.30;99.90;;;;;;5022971;28;20468;-72
2021/08/16 05:42:54;;;;;;;6.83;6.03;;;19.20;99.90;;;;;;5018513;28;20464;-72
2021/08/16 05:45:22;;;;;;;7.83;5.93;;;19.20;99.90;;;;;;5018576;28;20484;-73
2021/08/16 05:47:48;;;;;;;5.97;5.40;;;19.30;99.90;;;;;;5019347;28;20464;-72
2021/08/16 05:50:15;;;;;;;7.10;5.20;;;19.30;99.90;;;;;;5018331;28;20989;-72
2021/08/16 05:52:42;;;;;;;9.07;5.30;;;19.20;99.90;;;;;;5018168;28;20456;-72
2021/08/16 05:55:09;;;;;;;9.63;5.80;;;19.30;99.90;;;;;;5019785;28;20463;-72
2021/08/16 05:57:36;;;;;;;6.17;5.53;;;19.30;99.90;;;;;;5018125;28;20513;-72
2021/08/16 06:00:03;;;;;;;6.70;6.00;;;19.30;99.90;;;;;;5024795;28;20464;-72
2021/08/16 06:02:33;;;;;;;8.70;5.83;;;19.30;99.90;;;;;;5033101;28;20627;-72
2021/08/16 06:04:59;;;;;;;7.10;5.30;;;19.30;99.90;;;;;;5037405;28;20521;-73
2021/08/16 06:07:26;;;;;;;7.43;6.00;;;19.30;99.90;;;;;;5048275;28;20486;-72
2021/08/16 06:09:53;;;;;;;7.27;5.50;;;19.30;99.90;;;;;;5048565;28;20463;-72
2021/08/16 06:12:20;;;;;;;9.90;6.27;;;19.20;99.90;;;;;;5048882;28;20880;-72
2021/08/16 06:14:47;;;;;;;6.43;5.70;;;19.30;99.90;;;;;;5049051;28;20955;-72
2021/08/16 06:17:14;;;;;;;10.00;5.73;;;19.30;99.90;;;;;;5048244;28;20850;-71
2021/08/16 06:19:42;;;;;;;6.90;6.00;;;19.20;99.90;;;;;;5051535;28;20841;-72
2021/08/16 06:22:09;;;;;;;6.43;5.40;;;19.20;99.90;;;;;;5052523;28;20467;-72
2021/08/16 06:24:36;;;;;;;5.97;5.30;;;19.30;99.90;;;;;;5053133;28;20463;-71
2021/08/16 06:27:04;;;;;;;6.33;5.60;;;19.20;99.90;;;;;;5052637;28;20546;-71
2021/08/16 06:29:31;;;;;;;7.73;5.20;;;19.30;99.90;;;;;;5052047;28;20833;-72
2021/08/16 06:31:58;;;;;;;6.10;5.50;;;19.30;99.90;;;;;;5053024;28;20459;-72
2021/08/16 06:34:24;;;;;;;7.20;5.90;;;19.30;99.90;;;;;;5052187;28;20474;-72
2021/08/16 06:36:53;;;;;;;6.90;6.10;;;19.30;99.90;;;;;;5052681;28;20704;-72
2021/08/16 06:39:21;;;;;;;8.20;5.40;;;19.30;99.90;;;;;;5051985;28;20459;-71
2021/08/16 06:41:50;;;;;;;9.23;5.80;;;19.30;99.90;;;;;;5052646;28;20491;-72
2021/08/16 06:44:17;;;;;;;7.10;5.30;;;19.30;99.90;;;;;;5036557;28;20464;-71
2021/08/16 06:46:44;;;;;;;7.10;4.40;;;19.40;99.90;;;;;;5029937;28;20488;-71
2021/08/16 06:49:12;;;;;;;5.43;4.30;;;19.40;99.90;;;;;;5030832;28;20447;-72
2021/08/16 06:51:38;;;;;;;6.30;4.87;;;19.40;99.90;;;;;;5031522;28;20464;-72
2021/08/16 06:54:07;;;;;;;6.03;4.33;;;19.40;99.90;;;;;;5030674;28;20463;-72
2021/08/16 06:56:34;;;;;;;5.80;3.93;;;19.30;99.90;;;;;;5031775;28;20503;-72
2021/08/16 06:59:00;;;;;;;7.30;3.87;;;19.30;99.90;;;;;;5030762;28;20460;-72
2021/08/16 07:01:28;;;;;;;5.13;3.80;;;19.40;99.90;;;;;;5031755;28;20460;-72
2021/08/16 07:03:56;;;;;;;6.90;4.37;;;19.40;99.90;;;;;;5031492;28;20483;-72
2021/08/16 07:06:23;;;;;;;5.70;3.93;;;19.40;99.90;;;;;;5031241;28;20488;-72
2021/08/16 07:08:50;;;;;;;8.90;5.47;;;19.40;99.90;;;;;;5030736;28;20464;-72
2021/08/16 07:11:19;;;;;;;4.33;3.73;;;19.40;99.90;;;;;;5031083;28;20453;-72
2021/08/16 07:13:45;;;;;;;6.13;4.07;;;19.40;99.90;;;;;;5031412;28;20460;-72
2021/08/16 07:16:12;;;;;;;6.37;4.37;;;19.30;99.90;;;;;;5030783;28;20983;-71
2021/08/16 07:18:40;;;;;;;6.03;4.20;;;19.30;99.90;;;;;;5030745;28;20850;-72
2021/08/16 07:21:07;;;;;;;6.30;4.33;;;19.30;99.90;;;;;;5030789;28;20464;-71
2021/08/16 07:23:36;;;;;;;7.40;4.63;;;19.30;99.90;;;;;;5031158;28;20460;-71
2021/08/16 07:26:03;;;;;;;5.23;4.07;;;19.40;99.90;;;;;;5030706;28;21003;-71
2021/08/16 07:28:32;;;;;;;6.80;4.47;;;19.30;99.90;;;;;;5030329;28;20852;-71
2021/08/16 07:31:00;;;;;;;5.37;4.60;;;19.40;99.90;;;;;;5030767;28;20471;-72
2021/08/16 07:33:27;;;;;;;4.27;3.87;;;19.40;99.90;;;;;;5030447;28;20464;-72
2021/08/16 07:35:59;;;;;;;6.47;3.93;;;19.50;99.90;;;;;;5030966;28;20476;-72
2021/08/16 07:38:25;;;;;;;6.07;4.10;;;19.50;99.90;;;;;;5030403;28;20460;-71
2021/08/16 07:40:52;;;;;;;6.30;3.30;;;19.50;99.90;;;;;;5030705;28;20479;-71
2021/08/16 07:43:20;;;;;;;6.30;3.87;;;19.60;99.90;;;;;;5030323;28;20471;-72
2021/08/16 07:45:49;;;;;;;4.77;3.80;;;19.50;99.90;;;;;;5030470;28;20571;-72
2021/08/16 07:48:16;;;;;;;4.03;3.63;;;19.50;99.90;;;;;;5029779;28;20495;-72
2021/08/16 07:50:43;;;;;;;5.83;4.00;;;19.50;99.90;;;;;;5030364;28;20875;-72
2021/08/16 07:53:09;;;;;;;5.90;3.70;;;19.60;99.90;;;;;;5019824;28;20476;-72
2021/08/16 07:55:36;;;;;;;3.77;3.37;;;19.60;99.90;;;;;;5008250;28;20481;-72
2021/08/16 07:58:03;;;;;;;7.93;3.80;;;19.60;99.90;;;;;;5010633;28;20469;-71
2021/08/16 08:00:30;;;;;;;4.03;3.43;;;19.60;99.90;;;;;;5011428;28;20465;-71
2021/08/16 08:02:58;;;;;;;5.80;3.93;;;19.60;99.90;;;;;;5011005;28;20984;-72
2021/08/16 08:05:25;;;;;;;6.97;3.80;;;19.60;99.90;;;;;;5030497;28;20499;-71
2021/08/16 08:07:52;;;;;;;5.07;3.73;;;19.60;99.90;;;;;;5022237;28;20557;-71
2021/08/16 08:10:21;;;;;;;4.20;3.70;;;19.70;99.90;;;;;;5025848;28;20971;-71
2021/08/16 08:12:49;;;;;;;6.57;3.80;;;19.70;99.90;;;;;;5028832;28;20467;-71
2021/08/16 08:15:17;;;;;;;4.33;3.53;;;19.80;99.90;;;;;;5028571;28;20472;-70
2021/08/16 08:17:43;;;;;;;4.50;3.17;;;19.80;99.90;;;;;;5028099;28;20472;-71
2021/08/16 08:20:13;;;;;;;4.23;3.53;;;19.90;99.90;;;;;;5028229;28;20460;-71
2021/08/16 08:22:39;;;;;;;4.70;3.50;;;20.00;99.90;;;;;;5028688;28;20472;-71
2021/08/16 08:25:07;;;;;;;4.23;3.70;;;20.00;99.90;;;;;;5028492;28;20460;-71
2021/08/16 08:27:34;;;;;;;5.83;3.30;;;20.10;99.90;;;;;;5027833;28;20492;-71
2021/08/16 08:30:01;;;;;;;5.23;4.10;;;20.10;99.90;;;;;;5028696;28;20468;-71
2021/08/16 08:32:27;;;;;;;4.10;3.70;;;20.20;99.90;;;;;;5028342;28;20475;-71
2021/08/16 08:34:54;;;;;;;6.47;4.07;;;20.40;99.90;;;;;;5025223;28;20841;-72
2021/08/16 08:37:22;;;;;;;5.60;3.93;;;20.60;99.90;;;;;;5027920;28;21232;-73
2021/08/16 08:39:49;;;;;;;5.60;3.67;;;20.80;99.90;;;;;;5028645;28;20460;-72
2021/08/16 08:42:16;;;;;;;6.80;3.77;;;20.90;99.90;;;;;;5027548;28;20472;-72
2021/08/16 08:44:44;;;;;;;5.30;3.87;;;20.90;99.90;;;;;;5028279;28;20456;-72
2021/08/16 08:47:12;;;;;;;4.43;4.03;;;20.90;99.90;;;;;;5027790;28;20492;-70
2021/08/16 08:49:40;;;;;;;4.50;3.93;;;21.00;99.90;;;;;;5028390;28;20567;-71
2021/08/16 08:52:07;;;;;;;6.23;4.00;;;21.10;99.90;;;;;;5027463;28;20464;-71
2021/08/16 08:54:36;;;;;;;7.23;4.67;;;21.20;99.90;;;;;;5028823;28;20469;-71
2021/08/16 08:57:04;;;;;;;5.50;4.03;;;21.30;99.90;;;;;;5029123;28;20487;-71
2021/08/16 08:59:31;;;;;;;4.60;4.13;;;21.50;99.90;;;;;;5035436;28;20463;-71
2021/08/16 09:01:59;;;;;;;6.17;4.13;;;21.50;99.90;;;;;;5047281;28;20470;-71
2021/08/16 09:04:26;;;;;;;5.57;4.40;;;21.50;99.90;;;;;;5025602;28;20470;-71
2021/08/16 09:06:54;;;;;;;6.17;4.57;;;21.50;99.90;;;;;;5023271;28;20493;-71
2021/08/16 09:09:20;;;;;;;7.10;4.80;;;21.50;99.90;;;;;;5018276;28;20464;-71
2021/08/16 09:11:53;;;;;;;7.70;4.40;;;21.30;99.90;;;;;;5018876;28;20468;-71
2021/08/16 09:14:21;;;;;;;5.87;4.40;;;21.20;99.90;;;;;;5025936;28;20960;-70
2021/08/16 09:16:48;;;;;;;7.00;4.13;;;21.10;99.90;;;;;;5027146;28;20484;-70
2021/08/16 09:19:17;;;;;;;4.80;4.27;;;21.10;99.90;;;;;;5026815;28;20975;-71
2021/08/16 09:21:47;;;;;;;4.97;4.03;;;21.10;99.90;;;;;;5026495;28;20460;-71
2021/08/16 09:24:14;;;;;;;6.47;4.47;;;21.10;99.90;;;;;;5027173;28;20460;-70
2021/08/16 09:26:43;;;;;;;7.30;4.80;;;21.10;99.90;;;;;;5026966;28;20995;-70
2021/08/16 09:29:14;;;;;;;6.90;4.50;;;21.10;99.90;;;;;;5025833;28;20464;-70
2021/08/16 09:31:52;;;;;;;5.40;4.47;;;21.10;99.90;;;;;;5027395;28;20464;-71
2021/08/16 09:34:34;;;;;;;7.83;5.13;;;21.10;99.90;;;;;;5026077;28;21007;-70
2021/08/16 09:37:02;;;;;;;4.37;3.50;;;21.00;99.90;;;;;;5026676;28;20487;-70
2021/08/16 09:39:32;;;;;;;8.10;4.77;;;21.00;99.90;;;;;;5026487;28;20461;-70
2021/08/16 09:42:00;;;;;;;6.20;4.43;;;20.90;99.90;;;;;;5026947;28;20479;-70
2021/08/16 09:44:29;;;;;;;4.90;3.80;;;20.80;99.90;;;;;;5026482;28;20538;-70
2021/08/16 09:47:03;;;;;;;4.60;4.10;;;20.80;99.90;;;;;;5026465;28;20493;-70
2021/08/16 09:49:30;;;;;;;7.37;4.23;;;20.70;99.90;;;;;;5026199;28;20466;-70
2021/08/16 09:52:05;;;;;;;4.70;3.80;;;20.60;99.90;;;;;;5025802;28;20456;-70
2021/08/16 09:54:32;;;;;;;6.03;4.17;;;20.60;99.90;;;;;;5026025;28;20464;-70
2021/08/16 09:57:01;;;;;;;6.17;3.60;;;20.60;99.90;;;;;;5024915;28;20519;-70
2021/08/16 09:59:30;;;;;;;5.57;3.80;;;20.60;99.90;;;;;;5025203;28;20574;-70
2021/08/16 10:01:57;;;;;;;7.33;4.33;;;20.60;99.90;;;;;;5025430;28;20522;-70
2021/08/16 10:04:24;;;;;;;5.10;3.70;;;20.60;99.90;;;;;;5027004;28;20496;-70
2021/08/16 10:06:52;;;;;;;5.20;3.83;;;20.70;99.90;;;;;;5027005;28;20484;-70
2021/08/16 10:09:21;;;;;;;5.73;3.87;;;20.80;99.90;;;;;;5026161;28;20460;-70
2021/08/16 10:11:49;;;;;;;5.90;3.73;;;20.80;99.90;;;;;;5027159;28;20475;-70
2021/08/16 10:14:19;;;;;;;4.80;3.50;;;20.80;99.90;;;;;;5026381;28;20460;-70
2021/08/16 10:16:51;;;;;;;4.20;3.60;;;20.80;99.90;;;;;;5027497;28;20990;-70
2021/08/16 10:19:21;;;;;;;6.97;4.10;;;20.80;99.90;;;;;;5026255;28;20834;-71
2021/08/16 10:21:49;;;;;;;6.50;4.00;;;20.80;99.90;;;;;;5026903;28;20465;-70
2021/08/16 10:24:18;;;;;;;8.10;4.27;;;20.80;99.90;;;;;;5026851;28;20490;-71
2021/08/16 10:26:56;;;;;;;6.00;3.60;;;20.70;99.90;;;;;;5027197;28;20659;-71
2021/08/16 10:29:23;;;;;;;4.70;3.80;;;20.70;99.90;;;;;;5026447;28;20460;-71
2021/08/16 10:31:53;;;;;;;4.20;3.70;;;20.70;99.90;;;;;;5029997;28;20506;-71
2021/08/16 10:34:28;;;;;;;6.80;3.63;;;20.70;99.90;;;;;;5035678;28;20517;-70
2021/08/16 10:36:59;;;;;;;8.67;3.30;;;20.60;99.90;;;;;;5034370;28;21009;-70
2021/08/16 10:39:35;;;;;;;5.87;3.50;;;20.60;99.90;;;;;;5037782;28;20893;-70
2021/08/16 10:42:07;;;;;;;5.40;3.50;;;20.50;99.90;;;;;;5045640;28;20463;-70
2021/08/16 10:44:41;;;;;;;5.23;3.63;;;20.50;99.90;;;;;;5039862;28;20452;-71
2021/08/16 10:47:11;;;;;;;5.97;3.63;;;20.50;99.90;;;;;;5026707;28;20530;-70
2021/08/16 10:49:40;;;;;;;5.50;3.53;;;20.60;99.90;;;;;;5029220;28;20460;-71
2021/08/16 10:52:19;;;;;;;6.13;3.57;;;20.80;99.90;;;;;;5035711;28;20477;-72
2021/08/16 10:54:46;;;;;;;4.27;3.73;;;20.90;99.90;;;;;;5034795;28;20460;-71
2021/08/16 10:57:14;;;;;;;7.53;3.97;;;21.10;99.90;;;;;;5033990;28;20575;-71
2021/08/16 10:59:41;;;;;;;5.30;3.63;;;21.20;99.90;;;;;;5036000;28;20463;-71
2021/08/16 11:02:09;;;;;;;5.40;3.50;;;21.20;99.90;;;;;;5036203;28;20463;-71
2021/08/16 11:04:40;;;;;;;4.83;3.80;;;21.40;99.90;;;;;;5035743;28;20827;-71
2021/08/16 11:07:08;;;;;;;6.37;3.70;;;21.50;99.90;;;;;;5039013;28;20981;-71
2021/08/16 11:09:37;;;;;;;5.23;3.67;;;21.60;99.90;;;;;;5115146;22;20494;-70
2021/08/16 11:12:06;;;;;;;5.17;3.60;;;21.70;99.90;;;;;;5043927;28;20455;-69
2021/08/16 11:14:35;;;;;;;4.30;3.90;;;21.80;99.90;;;;;;5049185;28;20452;-67
2021/08/16 11:17:02;;;;;;;4.73;3.57;;;21.90;99.90;;;;;;5043762;28;20474;-67
2021/08/16 11:19:41;;;;;;;3.97;3.53;;;21.90;99.90;;;;;;5048447;28;20466;-67
2021/08/16 11:22:08;;;;;;;3.80;3.30;;;21.90;99.90;;;;;;5045443;28;20458;-67
2021/08/16 11:24:37;;;;;;;6.00;5.43;;;22.00;99.90;;;;;;5049096;28;20517;-67
2021/08/16 11:27:06;;;;;;;5.83;2.70;;;21.90;99.90;;;;;;5048368;28;20936;-67
2021/08/16 11:29:34;;;;;;;5.20;3.90;;;21.80;99.90;;;;;;5045009;28;20982;-67
2021/08/16 11:32:03;;;;;;;5.30;3.63;;;21.60;99.90;;;;;;5048474;28;20459;-67
2021/08/16 11:34:32;;;;;;;3.90;3.57;;;21.50;99.90;;;;;;5043260;28;20455;-67
2021/08/16 11:37:00;;;;;;;5.57;3.83;;;21.30;99.90;;;;;;5047224;28;20475;-67
2021/08/16 11:39:32;;;;;;;4.10;3.70;;;21.40;99.90;;;;;;5042870;28;20463;-67
2021/08/16 11:42:00;;;;;;;9.30;4.10;;;21.60;99.90;;;;;;5048196;28;20560;-67
2021/08/16 11:44:31;;;;;;;4.87;3.60;;;21.90;99.90;;;;;;5038955;28;20541;-67
2021/08/16 11:46:59;;;;;;;3.63;3.23;;;22.30;99.90;;;;;;5039607;28;20571;-67
2021/08/16 11:49:27;;;;;;;4.07;3.20;;;22.60;99.90;;;;;;5031140;28;20487;-67
2021/08/16 11:51:55;;;;;;;4.00;3.40;;;22.70;99.90;;;;;;5040557;28;20467;-67
2021/08/16 11:54:28;;;;;;;5.13;3.87;;;22.80;99.90;;;;;;5027949;28;20894;-67
2021/08/16 11:56:56;;;;;;;7.83;4.03;;;22.70;99.90;;;;;;5027127;28;20491;-67
2021/08/16 11:59:23;;;;;;;5.40;3.70;;;22.60;99.90;;;;;;5028145;28;20838;-67
2021/08/16 12:01:51;;;;;;;4.93;3.57;;;22.60;99.90;;;;;;5027903;28;20464;-67
2021/08/16 12:04:18;;;;;;;5.63;3.40;;;22.70;99.90;;;;;;5027839;28;20466;-68
2021/08/16 12:06:48;;;;;;;4.43;3.60;;;22.80;99.90;;;;;;5028533;28;20484;-67
2021/08/16 12:09:15;;;;;;;4.37;3.43;;;22.90;99.90;;;;;;5027685;28;20504;-67
2021/08/16 12:11:44;;;;;;;8.87;4.53;;;23.10;99.90;;;;;;5023176;28;20591;-68
2021/08/16 12:14:10;;;;;;;5.67;3.60;;;23.20;99.90;;;;;;5027482;28;20468;-68
2021/08/16 12:16:38;;;;;;;3.60;3.00;;;23.10;99.90;;;;;;5027014;28;20869;-67
2021/08/16 12:19:07;;;;;;;3.93;3.40;;;22.90;99.90;;;;;;5027623;28;20457;-67
2021/08/16 12:21:34;;;;;;;4.47;3.63;;;22.70;99.90;;;;;;5027660;28;20496;-67
2021/08/16 12:24:03;;;;;;;4.20;3.80;;;22.40;99.90;;;;;;5043445;28;21035;-68
2021/08/16 12:26:32;;;;;;;4.20;3.37;;;22.40;99.90;;;;;;5048482;28;20485;-67
2021/08/16 12:29:01;;;;;;;3.87;3.20;;;22.40;99.90;;;;;;5048004;28;20484;-67
2021/08/16 12:31:30;;;;;;;6.10;4.07;;;22.40;99.90;;;;;;5049408;28;20981;-67
2021/08/16 12:33:59;;;;;;;5.53;3.40;;;22.40;99.90;;;;;;5048667;28;20951;-67
2021/08/16 12:36:28;;;;;;;4.90;3.53;;;22.40;99.90;;;;;;5048411;28;20900;-67
2021/08/16 12:38:58;;;;;;;6.30;3.80;;;22.60;99.90;;;;;;5047603;28;20465;-67
2021/08/16 12:41:26;;;;;;;4.30;3.63;;;22.80;99.90;;;;;;5048756;28;20936;-67
2021/08/16 12:43:53;;;;;;;3.70;3.10;;;23.00;99.90;;;;;;5048908;28;20505;-67
2021/08/16 12:46:35;;;;;;;5.00;3.93;;;23.20;99.90;;;;;;5048036;28;20486;-67
2021/08/16 12:49:04;;;;;;;4.07;3.50;;;23.30;99.90;;;;;;5029236;28;20893;-68